Time;durP1;ratioP1;P1;durP2;ratioP2;P2;SDS_P1;SDS_P2;PMS_P1;PMS_P2;Temp;Humidity;BMP_temperature;BMP_pressure;BME280_temperature;BME280_humidity;BME280_pressure;Samples;Min_cycle;Max_cycle;Signal;HPM_P1;HPM_P2
2021/07/13 00:01:21;;;;;;;;;4.00;4.00;;;;;18.51;68.55;100831.47;6208641;22;45334;-91
2021/07/13 00:03:48;;;;;;;;;5.00;4.00;;;;;18.52;68.41;100822.63;6206369;22;45209;-91
2021/07/13 00:06:16;;;;;;;;;5.00;3.00;;;;;18.49;68.63;100812.31;6207182;22;45527;-91
2021/07/13 00:08:41;;;;;;;;;4.00;4.00;;;;;18.49;68.37;100807.03;6205370;22;46698;-91
2021/07/13 00:11:10;;;;;;;;;5.00;5.00;;;;;18.51;68.64;100804.31;6206572;22;45416;-89
2021/07/13 00:13:36;;;;;;;;;5.00;5.00;;;;;18.51;68.62;100802.50;6207062;22;45370;-91
2021/07/13 00:16:01;;;;;;;;;4.00;4.00;;;;;18.53;68.28;100798.00;6206416;22;44866;-91
2021/07/13 00:18:29;;;;;;;;;4.00;4.00;;;;;18.52;68.84;100808.63;6208015;22;45331;-91
2021/07/13 00:20:57;;;;;;;;;6.33;5.00;;;;;18.50;68.53;100810.50;6205872;22;45401;-90
2021/07/13 00:23:35;;;;;;;;;;;;;;;;;;;;;
2021/07/13 00:26:03;;;;;;;;;4.00;4.00;;;;;18.42;68.55;100821.56;6206204;22;63339;-91
2021/07/13 00:28:40;;;;;;;;;5.67;5.00;;;;;18.39;68.78;100819.16;6206158;22;46736;-92
2021/07/13 00:31:05;;;;;;;;;4.33;4.33;;;;;18.34;68.75;100803.66;6205924;22;45233;-90
2021/07/13 00:33:33;;;;;;;;;9.33;7.00;;;;;18.36;68.89;100812.31;6208153;22;44890;-90
2021/07/13 00:35:58;;;;;;;;;6.00;6.00;;;;;18.35;68.96;100807.13;6208439;22;45351;-91
2021/07/13 00:38:24;;;;;;;;;7.00;5.67;;;;;18.35;68.75;100810.63;6205226;22;47060;-90
2021/07/13 00:40:50;;;;;;;;;11.00;7.00;;;;;18.30;68.57;100789.84;6206555;22;44752;-91
2021/07/13 00:43:20;;;;;;;;;6.67;6.67;;;;;18.35;68.92;100784.28;6206769;23;45290;-90
2021/07/13 00:45:46;;;;;;;;;8.33;7.00;;;;;18.34;69.01;100774.69;6206539;23;45514;-91
2021/07/13 00:48:14;;;;;;;;;6.67;5.00;;;;;18.32;68.66;100763.41;6206180;23;47004;-90
2021/07/13 00:50:44;;;;;;;;;9.33;8.00;;;;;18.37;68.93;100771.00;6208007;22;45425;-90
2021/07/13 00:53:12;;;;;;;;;6.67;6.00;;;;;18.38;68.71;100772.69;6206176;23;45286;-91
2021/07/13 00:55:37;;;;;;;;;9.00;9.00;;;;;18.37;68.84;100755.19;6206546;23;45427;-91
2021/07/13 00:58:04;;;;;;;;;8.00;7.33;;;;;18.44;68.81;100777.53;6205309;23;47143;-91
2021/07/13 01:00:31;;;;;;;;;9.67;9.67;;;;;18.41;68.95;100768.03;6206139;23;45348;-90
2021/07/13 01:03:01;;;;;;;;;10.67;10.67;;;;;18.45;68.64;100775.72;6206088;22;45414;-91
2021/07/13 01:05:33;;;;;;;;;9.33;9.00;;;;;18.41;68.98;100762.78;6206714;23;45439;-91
2021/07/13 01:08:13;;;;;;;;;11.00;9.67;;;;;18.44;68.84;100774.91;6207506;22;46432;-91
2021/07/13 01:10:44;;;;;;;;;10.00;10.00;;;;;18.46;68.96;100769.53;6205877;22;45915;-90
2021/07/13 01:13:48;;;;;;;;;9.25;9.25;;;;;18.45;68.75;100773.94;6206454;22;45215;-90
2021/07/13 01:16:42;;;;;;;;;12.25;11.00;;;;;18.39;68.56;100769.97;6206210;22;45576;-91
2021/07/13 01:19:34;;;;;;;;;11.75;11.25;;;;;18.36;68.38;100772.78;6244808;22;47112;-91
2021/07/13 01:22:13;;;;;;;;;13.00;12.25;;;;;18.36;68.72;100777.19;6273071;22;45896;-91
2021/07/13 01:24:58;;;;;;;;;16.00;12.25;;;;;18.33;68.64;100766.88;6273259;22;45394;-90
2021/07/13 01:27:40;;;;;;;;;14.75;12.00;;;;;18.37;68.93;100757.84;6247599;22;45228;-91
2021/07/13 01:30:29;;;;;;;;;13.00;12.50;;;;;18.37;68.38;100755.19;6272997;22;46855;-90
2021/07/13 01:33:04;;;;;;;;;15.25;14.00;;;;;18.38;68.35;100762.16;6246696;22;45310;-90
2021/07/13 01:35:45;;;;;;;;;12.00;12.00;;;;;18.36;68.62;100766.66;6246340;22;45321;-91
2021/07/13 01:38:12;;;;;;;;;17.75;16.00;;;;;18.36;68.38;100777.19;6273300;22;45427;-90
2021/07/13 01:40:45;;;;;;;;;15.50;15.50;;;;;18.27;68.06;100774.25;6272722;22;46856;-91
2021/07/13 01:43:14;;;;;;;;;18.25;17.00;;;;;18.28;68.44;100789.09;6272215;22;45429;-90
2021/07/13 01:45:41;;;;;;;;;17.50;15.00;;;;;18.29;68.53;100789.97;6247264;22;45288;-91
2021/07/13 01:48:11;;;;;;;;;18.75;17.50;;;;;18.29;68.67;100789.97;6247266;22;45430;-90
2021/07/13 01:50:41;;;;;;;;;21.75;18.00;;;;;18.25;68.64;100791.97;6273316;22;45510;-90
2021/07/13 01:53:07;;;;;;;;;17.25;16.25;;;;;18.28;68.85;100793.53;6272434;22;45439;-91
2021/07/13 01:55:35;;;;;;;;;17.00;17.00;;;;;18.25;68.47;100791.97;6257947;22;45344;-89
2021/07/13 01:58:04;;;;;;;;;18.67;17.67;;;;;18.22;68.41;100786.03;6208263;22;44902;-91
2021/07/13 02:00:40;;;;;;;;;19.00;16.00;;;;;18.24;68.42;100789.44;6207346;22;47051;-90
2021/07/13 02:03:06;;;;;;;;;19.50;18.50;;;;;18.19;68.40;100794.16;6206228;22;45458;-91
2021/07/13 02:05:33;;;;;;;;;17.00;16.67;;;;;18.18;68.60;100782.78;6207756;22;45319;-90
2021/07/13 02:08:03;;;;;;;;;23.75;20.25;;;;;18.21;68.51;100790.47;6209549;22;45401;-91
2021/07/13 02:10:31;;;;;;;;;18.50;18.50;;;;;18.22;68.36;100791.31;6207486;22;48149;-90
2021/07/13 02:12:57;;;;;;;;;21.00;17.50;;;;;18.24;68.91;100789.44;6207271;22;44741;-89
2021/07/13 02:15:22;;;;;;;;;23.25;18.75;;;;;18.24;68.45;100781.53;6209082;22;45399;-91
2021/07/13 02:17:51;;;;;;;;;20.75;19.25;;;;;18.19;68.66;100776.56;6207626;22;45578;-91
2021/07/13 02:20:24;;;;;;;;;24.00;21.00;;;;;18.24;68.66;100779.72;6207416;22;47599;-91
2021/07/13 02:22:50;;;;;;;;;18.75;17.50;;;;;18.27;68.57;100779.53;6208347;22;45237;-91
2021/07/13 02:25:16;;;;;;;;;21.25;17.75;;;;;18.27;68.62;100769.00;6207031;22;45403;-91
2021/07/13 02:28:10;;;;;;;;;19.25;18.50;;;;;18.32;68.74;100762.56;6207761;22;45371;-90
2021/07/13 02:30:39;;;;;;;;;20.50;19.25;;;;;18.33;68.86;100772.97;6241513;22;47139;-91
2021/07/13 02:33:19;;;;;;;;;25.25;23.00;;;;;18.30;68.85;100783.75;6240390;22;45310;-90
2021/07/13 02:35:49;;;;;;;;;18.00;15.00;;;;;18.31;68.77;100793.31;6241981;22;45416;-91
2021/07/13 02:38:15;;;;;;;;;19.50;17.00;;;;;18.29;68.71;100788.16;6242064;22;45267;-90
2021/07/13 02:40:43;;;;;;;;;20.00;16.50;;;;;18.27;68.52;100779.53;6241315;22;47831;-91
2021/07/13 02:43:12;;;;;;;;;16.75;15.00;;;;;18.29;68.37;100767.09;6241082;22;45665;-91
2021/07/13 02:45:38;;;;;;;;;14.25;14.00;;;;;18.22;68.27;100757.94;6215264;22;45717;-91
2021/07/13 02:48:05;;;;;;;;;17.67;14.33;;;;;18.25;68.17;100763.00;6241588;22;45325;-91
2021/07/13 02:50:31;;;;;;;;;14.00;12.00;;;;;18.20;68.25;100764.25;6240921;22;48180;-91
2021/07/13 02:52:58;;;;;;;;;14.00;12.50;;;;;18.23;68.47;100770.13;6241999;22;45337;-91
2021/07/13 02:55:27;;;;;;;;;11.75;11.00;;;;;18.22;68.92;100780.78;6241353;22;45353;-91
2021/07/13 02:57:55;;;;;;;;;13.00;12.50;;;;;18.22;68.54;100786.91;6215523;22;44849;-91
2021/07/13 03:00:22;;;;;;;;;10.75;9.50;;;;;18.23;68.80;100791.22;6241007;22;47168;-90
2021/07/13 03:02:49;;;;;;;;;14.50;14.00;;;;;18.24;68.60;100782.34;6241369;22;44796;-90
2021/07/13 03:05:20;;;;;;;;;14.00;12.25;;;;;18.22;68.57;100773.72;6241970;22;45377;-90
2021/07/13 03:07:50;;;;;;;;;12.00;11.00;;;;;18.22;68.48;100788.66;6233638;22;45571;-91
2021/07/13 03:10:20;;;;;;;;;13.25;12.75;;;;;18.26;68.41;100796.28;6208648;22;46210;-90
2021/07/13 03:12:47;;;;;;;;;11.75;11.75;;;;;18.26;68.31;100800.69;6206775;22;45407;-90
2021/07/13 03:15:13;;;;;;;;;13.25;11.50;;;;;18.25;68.48;100789.34;6206409;22;45359;-90
2021/07/13 03:17:39;;;;;;;;;12.00;10.33;;;;;18.29;68.46;100796.06;6206910;22;45444;-90
2021/07/13 03:20:06;;;;;;;;;11.33;11.33;;;;;18.30;68.41;100792.47;6205900;22;46850;-91
2021/07/13 03:22:36;;;;;;;;;11.50;10.25;;;;;18.25;67.90;100772.69;6206574;22;45227;-90
2021/07/13 03:25:03;;;;;;;;;11.50;11.25;;;;;18.24;68.31;100763.09;6206426;22;45336;-90
2021/07/13 03:27:31;;;;;;;;;10.75;10.75;;;;;18.28;68.70;100762.78;6207016;22;45372;-90
2021/07/13 03:29:58;;;;;;;;;9.50;9.50;;;;;18.21;68.47;100740.44;6205957;22;45281;-90
2021/07/13 03:32:25;;;;;;;;;11.00;11.00;;;;;18.24;68.47;100750.75;6208072;22;45202;-90
2021/07/13 03:34:51;;;;;;;;;11.25;11.25;;;;;18.20;67.96;100754.56;6208398;22;45354;-90
2021/07/13 03:37:19;;;;;;;;;12.33;11.33;;;;;18.17;68.11;100760.03;6206922;22;45533;-90
2021/07/13 03:39:45;;;;;;;;;10.50;10.00;;;;;18.15;68.44;100759.31;6206238;22;47791;-90
2021/07/13 03:42:11;;;;;;;;;11.67;11.33;;;;;18.13;68.70;100756.75;6205802;22;45579;-91
2021/07/13 03:44:36;;;;;;;;;10.25;8.75;;;;;18.14;68.39;100755.81;6206190;22;45207;-90
2021/07/13 03:47:03;;;;;;;;;12.00;12.00;;;;;18.16;68.48;100756.53;6208860;22;45356;-90
2021/07/13 03:49:32;;;;;;;;;12.00;10.67;;;;;18.16;68.77;100753.91;6206298;22;46318;-90
2021/07/13 03:51:58;;;;;;;;;10.00;9.00;;;;;18.14;68.70;100754.94;6206048;22;45404;-90
2021/07/13 03:54:24;;;;;;;;;13.67;11.67;;;;;18.19;68.46;100760.75;6206070;22;45830;-90
2021/07/13 03:56:50;;;;;;;;;14.00;10.00;;;;;18.20;69.00;100758.97;6206606;22;45323;-90
2021/07/13 03:59:17;;;;;;;;;11.00;10.67;;;;;18.20;68.45;100756.34;6206067;22;47074;-91
2021/07/13 04:01:43;;;;;;;;;10.67;9.67;;;;;18.20;68.59;100758.97;6205403;22;45196;-90
2021/07/13 04:04:09;;;;;;;;;9.33;9.33;;;;;18.20;68.48;100762.47;6205612;22;45297;-90
2021/07/13 04:06:35;;;;;;;;;12.50;11.50;;;;;18.20;68.44;100766.88;6206649;22;45420;-91
2021/07/13 04:09:03;;;;;;;;;12.25;10.50;;;;;18.21;68.77;100765.91;6206224;22;47125;-90
2021/07/13 04:11:28;;;;;;;;;9.75;9.75;;;;;18.19;68.83;100758.13;6206296;22;46284;-91
2021/07/13 04:13:54;;;;;;;;;10.00;10.00;;;;;18.23;68.87;100767.50;6205702;22;45265;-90
2021/07/13 04:16:19;;;;;;;;;11.00;10.00;;;;;18.20;68.73;100757.19;6206436;22;45317;-91
2021/07/13 04:18:45;;;;;;;;;13.25;12.25;;;;;18.19;68.77;100752.03;6207533;22;46519;-89
2021/07/13 04:21:10;;;;;;;;;9.75;9.25;;;;;18.20;68.36;100751.94;6205790;22;45379;-90
2021/07/13 04:23:36;;;;;;;;;11.75;10.25;;;;;18.20;69.08;100757.19;6205572;22;45715;-90
2021/07/13 04:26:03;;;;;;;;;13.00;11.25;;;;;18.17;68.82;100746.84;6205859;22;45291;-90
2021/07/13 04:28:31;;;;;;;;;15.00;11.25;;;;;18.17;69.11;100762.66;6207817;22;46450;-91
2021/07/13 04:30:57;;;;;;;;;13.75;11.50;;;;;18.18;69.37;100761.72;6205972;22;45420;-91
2021/07/13 04:33:23;;;;;;;;;14.00;13.00;;;;;18.13;68.99;100767.28;6205770;22;45461;-90
2021/07/13 04:35:48;;;;;;;;;11.50;11.50;;;;;18.14;69.21;100771.59;6205725;22;45506;-90
2021/07/13 04:38:14;;;;;;;;;11.00;11.00;;;;;18.14;68.65;100773.38;6205770;22;48352;-90
2021/07/13 04:40:40;;;;;;;;;13.00;11.33;;;;;18.16;69.36;100766.25;6206116;22;45386;-89
2021/07/13 04:43:05;;;;;;;;;11.50;11.00;;;;;18.18;68.91;100774.88;6206184;23;45359;-90
2021/07/13 04:45:31;;;;;;;;;15.50;12.50;;;;;18.21;68.99;100765.91;6205835;23;45468;-89
2021/07/13 04:47:57;;;;;;;;;10.00;10.00;;;;;18.20;69.31;100761.59;6205917;22;47135;-90
2021/07/13 04:50:22;;;;;;;;;13.00;13.00;;;;;18.16;69.42;100750.44;6207614;22;45245;-91
2021/07/13 04:52:50;;;;;;;;;14.50;12.75;;;;;18.21;69.12;100758.03;6206670;22;45576;-89
2021/07/13 04:55:17;;;;;;;;;13.33;11.00;;;;;18.19;69.15;100754.66;6206569;22;45277;-90
2021/07/13 04:57:44;;;;;;;;;12.00;11.67;;;;;18.20;68.73;100751.06;6207501;22;47372;-90
2021/07/13 05:00:10;;;;;;;;;14.67;13.00;;;;;18.18;68.98;100753.81;6207869;22;45384;-89
2021/07/13 05:02:35;;;;;;;;;15.67;13.67;;;;;18.18;68.93;100752.97;6208769;22;45346;-90
2021/07/13 05:05:01;;;;;;;;;14.00;14.00;;;;;18.20;69.08;100764.25;6207803;22;45278;-89
2021/07/13 05:07:26;;;;;;;;;13.00;12.00;;;;;18.17;69.07;100762.66;6207349;22;46572;-90
2021/07/13 05:09:52;;;;;;;;;14.50;14.00;;;;;18.21;69.17;100765.91;6207482;22;45164;-90
2021/07/13 05:12:17;;;;;;;;;15.00;13.00;;;;;18.19;69.14;100765.19;6207718;22;45409;-90
2021/07/13 05:14:43;;;;;;;;;13.00;12.00;;;;;18.23;69.02;100770.13;6209830;22;45210;-90
2021/07/13 05:17:10;;;;;;;;;12.67;9.33;;;;;18.25;68.82;100776.16;6207115;22;46917;-90
2021/07/13 05:19:36;;;;;;;;;16.25;15.75;;;;;18.26;68.67;100774.34;6207314;22;45278;-90
2021/07/13 05:22:03;;;;;;;;;13.33;13.33;;;;;18.24;68.76;100785.00;6206986;22;45423;-89
2021/07/13 05:24:29;;;;;;;;;17.67;15.00;;;;;18.27;69.14;100786.56;6207375;22;45394;-90
2021/07/13 05:26:55;;;;;;;;;14.00;13.00;;;;;18.27;68.80;100787.44;6206996;22;45979;-89
2021/07/13 05:29:20;;;;;;;;;19.67;16.33;;;;;18.27;69.12;100797.97;6208624;22;45418;-90
2021/07/13 05:31:46;;;;;;;;;18.25;16.75;;;;;18.25;69.06;100789.34;6207208;22;45271;-89
2021/07/13 05:34:12;;;;;;;;;15.50;13.00;;;;;18.29;69.12;100793.44;6209032;22;45448;-89
2021/07/13 05:36:38;;;;;;;;;13.75;13.75;;;;;18.34;68.47;100801.03;6207056;22;47176;-89
2021/07/13 05:39:06;;;;;;;;;14.75;13.00;;;;;18.34;69.00;100801.03;6206709;22;45257;-89
2021/07/13 05:41:33;;;;;;;;;14.75;13.75;;;;;18.37;69.23;100806.06;6207202;22;45453;-90
2021/07/13 05:43:59;;;;;;;;;13.50;13.50;;;;;18.36;68.94;100804.41;6208935;22;45404;-89
2021/07/13 05:46:25;;;;;;;;;14.75;14.25;;;;;18.33;68.59;100801.13;6206589;22;47011;-89
2021/07/13 05:48:51;;;;;;;;;15.50;12.50;;;;;18.31;68.61;100798.59;6208190;22;45320;-90
2021/07/13 05:51:16;;;;;;;;;15.50;15.00;;;;;18.36;69.42;100807.03;6206941;22;45282;-89
2021/07/13 05:53:42;;;;;;;;;15.25;13.50;;;;;18.33;68.42;100790.59;6209048;22;45222;-89
2021/07/13 05:56:11;;;;;;;;;12.67;12.67;;;;;18.33;69.01;100795.88;6206668;22;46546;-89
2021/07/13 05:58:37;;;;;;;;;17.67;15.33;;;;;18.34;68.75;100803.66;6208718;22;45292;-89
2021/07/13 06:01:04;;;;;;;;;13.67;12.67;;;;;18.36;68.65;100800.91;6207990;22;45397;-89
2021/07/13 06:03:30;;;;;;;;;19.25;16.75;;;;;18.34;68.56;100794.91;6207492;22;45414;-90
2021/07/13 06:05:55;;;;;;;;;20.75;17.75;;;;;18.36;68.60;100800.91;6207749;22;45359;-89
2021/07/13 06:08:21;;;;;;;;;16.75;15.75;;;;;18.32;68.71;100784.47;6208200;22;45311;-89
2021/07/13 06:10:46;;;;;;;;;17.50;15.25;;;;;18.39;68.75;100790.16;6208758;22;45403;-88
2021/07/13 06:13:11;;;;;;;;;12.50;11.75;;;;;18.37;68.69;100792.09;6206487;22;45313;-89
2021/07/13 06:15:37;;;;;;;;;17.50;15.25;;;;;18.37;68.64;100795.53;6206645;22;45342;-90
2021/07/13 06:18:03;;;;;;;;;14.50;12.75;;;;;18.34;68.87;100798.41;6205986;22;45151;-90
2021/07/13 06:20:28;;;;;;;;;15.50;12.50;;;;;18.37;68.97;100798.19;6206104;22;45325;-90
2021/07/13 06:22:54;;;;;;;;;14.75;14.75;;;;;18.39;68.95;100800.72;6206503;22;45494;-89
2021/07/13 06:25:22;;;;;;;;;18.25;17.00;;;;;18.36;68.88;100788.59;6208725;22;45276;-90
2021/07/13 06:27:49;;;;;;;;;23.00;18.50;;;;;18.42;68.86;100795.22;6206482;22;45479;-89
2021/07/13 06:30:15;;;;;;;;;16.25;15.00;;;;;18.41;68.75;100785.63;6206590;22;45354;-90
2021/07/13 06:32:41;;;;;;;;;15.00;14.33;;;;;18.48;68.83;100791.34;6208798;22;45474;-90
2021/07/13 06:35:09;;;;;;;;;21.25;18.25;;;;;18.50;68.99;100792.06;6205155;22;46877;-89
2021/07/13 06:37:34;;;;;;;;;17.67;16.00;;;;;18.52;68.88;100793.63;6206786;22;45252;-88
2021/07/13 06:40:00;;;;;;;;;19.75;15.25;;;;;18.50;69.14;100774.47;6208677;22;45526;-90
2021/07/13 06:42:25;;;;;;;;;16.25;15.75;;;;;18.50;69.13;100781.53;6206765;22;45240;-90
2021/07/13 06:44:51;;;;;;;;;17.33;17.33;;;;;18.58;69.39;100784.47;6206397;22;47074;-90
2021/07/13 06:47:16;;;;;;;;;18.33;16.33;;;;;18.61;69.16;100791.34;6206223;22;45331;-90
2021/07/13 06:49:42;;;;;;;;;16.00;16.00;;;;;18.62;69.36;100778.06;6208174;22;45401;-90
2021/07/13 06:52:07;;;;;;;;;22.33;17.00;;;;;18.68;68.91;100782.03;6209088;22;45320;-90
2021/07/13 06:54:32;;;;;;;;;16.33;15.67;;;;;18.69;69.09;100774.03;6206431;22;46614;-90
2021/07/13 06:56:58;;;;;;;;;22.00;18.00;;;;;18.68;68.91;100775.00;6206441;22;45387;-90
2021/07/13 06:59:24;;;;;;;;;20.50;18.25;;;;;18.69;68.74;100776.66;6206065;22;45499;-90
2021/07/13 07:01:52;;;;;;;;;20.25;19.00;;;;;18.70;68.85;100775.72;6206506;22;45358;-89
2021/07/13 07:04:18;;;;;;;;;20.50;17.50;;;;;18.72;68.90;100774.75;6205479;22;47357;-89
2021/07/13 07:06:43;;;;;;;;;18.75;16.50;;;;;18.68;68.95;100768.88;6205450;22;45255;-90
2021/07/13 07:09:11;;;;;;;;;22.00;18.50;;;;;18.73;68.86;100765.91;6206362;22;45273;-89
2021/07/13 07:11:37;;;;;;;;;21.50;18.25;;;;;18.75;68.83;100764.00;6207861;22;45325;-90
2021/07/13 07:14:05;;;;;;;;;21.00;20.50;;;;;18.78;68.95;100766.41;6204809;22;47405;-89
2021/07/13 07:16:30;;;;;;;;;20.25;19.00;;;;;18.74;68.96;100752.63;6205997;22;45314;-89
2021/07/13 07:18:56;;;;;;;;;18.50;16.75;;;;;18.72;69.05;100736.06;6207759;22;45531;-89
2021/07/13 07:21:21;;;;;;;;;20.75;18.75;;;;;18.74;68.58;100744.72;6207832;22;45522;-89
2021/07/13 07:23:47;;;;;;;;;20.25;17.50;;;;;18.78;68.73;100762.00;6205557;22;46653;-90
2021/07/13 07:26:12;;;;;;;;;23.25;17.25;;;;;18.80;68.87;100773.28;6207919;22;45236;-89
2021/07/13 07:28:38;;;;;;;;;20.50;18.50;;;;;18.86;68.88;100773.78;6207931;22;45196;-90
2021/07/13 07:31:03;;;;;;;;;21.00;17.00;;;;;18.88;68.87;100774.53;6208184;22;45187;-90
2021/07/13 07:33:36;;;;;;;;;24.75;18.25;;;;;18.91;68.59;100775.16;6205203;22;46909;-90
2021/07/13 07:36:02;;;;;;;;;20.00;18.00;;;;;18.98;68.83;100787.91;6205731;22;45399;-89
2021/07/13 07:38:27;;;;;;;;;17.00;16.25;;;;;18.92;68.51;100794.44;6205856;22;45181;-89
2021/07/13 07:40:54;;;;;;;;;20.75;18.00;;;;;18.98;68.53;100811.63;6207898;22;45391;-90
2021/07/13 07:43:19;;;;;;;;;19.75;18.00;;;;;18.94;68.40;100798.66;6206861;22;45615;-90
2021/07/13 07:45:45;;;;;;;;;14.25;14.25;;;;;18.93;68.83;100789.06;6205908;22;45217;-90
2021/07/13 07:48:11;;;;;;;;;19.25;16.50;;;;;18.95;68.63;100794.25;6205824;22;45286;-90
2021/07/13 07:50:36;;;;;;;;;17.50;17.00;;;;;18.98;68.65;100798.47;6207576;22;45316;-90
2021/07/13 07:53:02;;;;;;;;;17.00;16.25;;;;;19.02;68.69;100803.41;6206305;22;45687;-90
2021/07/13 07:55:32;;;;;;;;;18.75;15.00;;;;;19.09;69.04;100798.56;6207335;22;45314;-89
2021/07/13 07:57:58;;;;;;;;;18.33;15.67;;;;;19.11;68.67;100794.00;6207904;22;45157;-89
2021/07/13 08:00:24;;;;;;;;;21.50;17.25;;;;;19.12;68.84;100793.06;6206420;22;45257;-89
2021/07/13 08:02:49;;;;;;;;;16.50;14.75;;;;;19.19;68.42;100798.75;6206377;22;45202;-89
2021/07/13 08:05:15;;;;;;;;;15.50;13.75;;;;;19.20;68.35;100795.16;6204597;22;45451;-90
2021/07/13 08:07:42;;;;;;;;;19.00;15.75;;;;;19.22;68.40;100798.53;6206791;22;45398;-89
2021/07/13 08:10:09;;;;;;;;;19.50;15.75;;;;;19.25;68.48;100797.47;6205653;22;45578;-89
2021/07/13 08:12:35;;;;;;;;;16.75;16.25;;;;;19.30;68.39;100811.19;6203503;22;47532;-89
2021/07/13 08:15:00;;;;;;;;;11.67;10.00;;;;;19.36;68.15;100811.56;6206823;22;45257;-89
2021/07/13 08:17:26;;;;;;;;;24.00;17.00;;;;;19.36;68.05;100814.19;6207537;22;45279;-88
2021/07/13 08:19:51;;;;;;;;;14.00;12.67;;;;;19.39;68.24;100821.06;6208016;22;45387;-89
2021/07/13 08:22:17;;;;;;;;;16.33;11.00;;;;;19.46;67.96;100821.47;6204171;22;47944;-89
2021/07/13 08:24:42;;;;;;;;;18.33;13.00;;;;;19.46;68.12;100817.03;6204717;22;45229;-89
2021/07/13 08:27:09;;;;;;;;;15.33;12.33;;;;;19.44;68.26;100813.66;6205302;22;45504;-90
2021/07/13 08:29:35;;;;;;;;;9.67;9.67;;;;;19.46;68.05;100816.19;6205444;22;45617;-89
2021/07/13 08:32:01;;;;;;;;;11.67;9.00;;;;;19.49;68.21;100813.34;6207114;22;45612;-89
2021/07/13 08:34:29;;;;;;;;;9.33;9.33;;;;;19.54;68.19;100813.00;6205080;22;45554;-90
2021/07/13 08:36:54;;;;;;;;;9.67;9.67;;;;;19.53;68.03;100812.13;6207561;22;45353;-90
2021/07/13 08:39:20;;;;;;;;;12.00;10.67;;;;;19.58;68.11;100814.47;6207365;22;45433;-90
2021/07/13 08:41:46;;;;;;;;;13.00;12.33;;;;;19.58;67.84;100815.28;6207367;22;45331;-90
2021/07/13 08:44:12;;;;;;;;;11.67;11.00;;;;;19.62;68.17;100821.16;6204979;23;45293;-90
2021/07/13 08:46:44;;;;;;;;;13.67;12.00;;;;;19.62;68.02;100816.75;6207444;22;45612;-90
2021/07/13 08:49:12;;;;;;;;;10.00;10.00;;;;;19.65;68.08;100820.97;6207607;22;45406;-91
2021/07/13 08:51:39;;;;;;;;;12.00;12.00;;;;;19.62;68.43;100811.47;6206960;22;45281;-89
2021/07/13 08:54:05;;;;;;;;;13.00;11.33;;;;;19.67;68.18;100805.00;6204835;22;45205;-89
2021/07/13 08:56:32;;;;;;;;;12.33;11.33;;;;;19.65;68.19;100799.00;6207434;22;45222;-90
2021/07/13 08:59:01;;;;;;;;;13.33;10.33;;;;;19.67;68.35;100805.00;6206837;22;45335;-90
2021/07/13 09:01:26;;;;;;;;;12.33;11.33;;;;;19.69;68.11;100811.88;6204232;22;46240;-90
2021/07/13 09:03:57;;;;;;;;;14.00;11.67;;;;;19.62;67.72;100806.19;6204920;23;45367;-90
2021/07/13 09:06:25;;;;;;;;;13.67;12.00;;;;;19.66;68.10;100812.09;6206313;22;45633;-90
2021/07/13 09:08:51;;;;;;;;;12.33;10.00;;;;;19.68;68.09;100820.75;6206127;22;45527;-90
2021/07/13 09:11:18;;;;;;;;;12.33;9.67;;;;;19.69;68.09;100817.16;6206676;22;45473;-90
2021/07/13 09:13:46;;;;;;;;;10.67;10.67;;;;;19.71;68.15;100824.94;6206741;22;45245;-90
2021/07/13 09:16:14;;;;;;;;;12.67;12.00;;;;;19.74;68.30;100830.84;6205261;23;45399;-89
2021/07/13 09:19:25;;;;;;;;;14.00;12.00;;;;;19.72;68.13;100826.63;6205270;22;45421;-91
2021/07/13 09:21:54;;;;;;;;;12.00;9.00;;;;;19.76;68.07;100830.72;6194461;22;46638;-90
2021/07/13 09:24:22;;;;;;;;;12.00;11.67;;;;;19.80;68.15;100834.81;6204406;22;45513;-89
2021/07/13 09:26:52;;;;;;;;;12.00;12.00;;;;;19.84;67.88;100833.66;6204890;22;45349;-88
2021/07/13 09:29:36;;;;;;;;;14.67;11.00;;;;;19.87;67.74;100841.31;6206512;22;45386;-88
2021/07/13 09:32:23;;;;;;;;;14.33;12.00;;;;;19.89;67.85;100835.94;6206384;22;46476;-90
2021/07/13 09:34:52;;;;;;;;;10.67;10.67;;;;;19.87;67.62;100829.94;6206869;22;45264;-89
2021/07/13 09:37:31;;;;;;;;;14.67;13.67;;;;;19.85;67.81;100831.84;6204185;22;45341;-88
2021/07/13 09:39:59;;;;;;;;;13.00;13.00;;;;;19.86;67.77;100838.81;6206532;22;45430;-88
2021/07/13 09:42:26;;;;;;;;;15.33;9.67;;;;;19.87;67.77;100835.22;6207009;22;45778;-90
2021/07/13 09:44:52;;;;;;;;;14.67;12.33;;;;;19.83;67.74;100834.63;6208299;22;45426;-89
2021/07/13 09:47:30;;;;;;;;;9.00;9.00;;;;;19.80;67.55;100834.81;6206417;22;45328;-89
2021/07/13 09:49:58;;;;;;;;;16.67;13.67;;;;;19.81;67.59;100847.06;6206859;22;45514;-90
2021/07/13 09:52:25;;;;;;;;;12.00;12.00;;;;;19.77;67.61;100846.44;6205961;22;46865;-89
2021/07/13 09:54:52;;;;;;;;;12.33;10.00;;;;;19.77;67.76;100843.81;6207851;22;45438;-89
2021/07/13 09:57:27;;;;;;;;;16.75;14.25;;;;;19.79;68.12;100853.41;6206832;22;45252;-89
2021/07/13 09:59:56;;;;;;;;;17.00;13.25;;;;;19.78;68.04;100849.94;6207344;22;45254;-90
2021/07/13 10:02:43;;;;;;;;;14.67;13.33;;;;;19.79;67.99;100863.97;6206544;22;47889;-90
2021/07/13 10:05:09;;;;;;;;;15.67;14.33;;;;;19.77;68.01;100853.56;6206996;22;45361;-90
2021/07/13 10:07:38;;;;;;;;;12.00;11.00;;;;;19.76;67.73;100859.75;6208201;22;45368;-92
2021/07/13 10:10:15;;;;;;;;;11.00;10.33;;;;;19.76;68.28;100862.41;6208682;22;45259;-91
2021/07/13 10:12:48;;;;;;;;;13.67;12.33;;;;;19.74;68.21;100848.47;6232685;22;47667;-91
2021/07/13 10:15:52;;;;;;;;;;;;;;;;;;;;;
2021/07/13 10:18:24;;;;;;;;;14.67;12.33;;;;;19.72;68.73;100850.41;6208013;22;68526;-91
2021/07/13 10:21:03;;;;;;;;;;;;;;;;;;;;;
2021/07/13 10:23:45;;;;;;;;;;;;;;;;;;;;;
2021/07/13 10:30:01;;;;;;;;;;;;;;;;;;;;;
2021/07/13 10:32:36;;;;;;;;;12.00;11.00;;;;;19.88;69.08;100855.38;6115290;23;64344;-91
2021/07/13 10:35:39;;;;;;;;;;;;;;;;;;;;;
2021/07/13 10:41:54;;;;;;;;;;;;;;;;;;;;;
2021/07/13 10:45:14;;;;;;;;;;;;;;;;;;;;;
2021/07/13 10:48:20;;;;;;;;;10.00;8.33;;;;;20.04;68.99;100852.47;6059912;23;74361;-90
2021/07/13 10:51:03;;;;;;;;;5.67;5.00;;;;;20.06;69.01;100857.66;6058366;23;45326;-90
2021/07/13 10:53:55;;;;;;;;;9.67;8.00;;;;;20.08;69.05;100853.94;6059733;23;45463;-91
2021/07/13 10:57:03;;;;;;;;;;;;;;;;;;;;;
2021/07/13 10:59:53;;;;;;;;;8.33;8.00;;;;;20.18;69.20;100848.78;6056249;23;75357;-90
2021/07/13 11:02:21;;;;;;;;;8.00;8.00;;;;;20.23;69.00;100848.47;6058889;23;45743;-90
2021/07/13 11:04:49;;;;;;;;;11.33;8.67;;;;;20.26;68.79;100845.56;6060181;23;45285;-91
2021/07/13 11:07:42;;;;;;;;;8.33;8.33;;;;;20.28;69.00;100848.97;6099011;23;45515;-90
2021/07/13 11:10:30;;;;;;;;;;;;;;;;;;;;;
2021/07/13 11:13:14;;;;;;;;;;;;;;;;;;;;;
2021/07/13 11:15:52;;;;;;;;;7.67;7.00;;;;;20.47;69.09;100855.47;6213781;22;68632;-90
2021/07/13 11:19:02;;;;;;;;;;;;;;;;;;;;;
2021/07/13 11:21:58;;;;;;;;;10.00;9.67;;;;;20.54;68.81;100860.19;6146200;23;73580;-90
2021/07/13 11:24:41;;;;;;;;;;;;;;;;;;;;;
2021/07/13 11:27:13;;;;;;;;;12.00;9.67;;;;;20.59;68.28;100867.75;6116673;23;69032;-90
2021/07/13 11:30:19;;;;;;;;;11.67;11.00;;;;;20.62;68.56;100882.53;6117403;23;45412;-90
2021/07/13 11:33:20;;;;;;;;;;;;;;;;;;;;;
2021/07/13 11:35:53;;;;;;;;;14.00;10.67;;;;;20.65;69.02;100884.97;6146517;23;72876;-90
2021/07/13 11:38:35;;;;;;;;;10.33;10.00;;;;;20.65;68.67;100880.50;6122323;23;45283;-91
2021/07/13 11:41:21;;;;;;;;;10.00;10.00;;;;;20.67;68.47;100883.03;6146339;23;45910;-90
2021/07/13 11:43:58;;;;;;;;;11.33;10.33;;;;;20.64;68.32;100883.28;6123315;23;45752;-90
2021/07/13 11:46:34;;;;;;;;;11.33;10.00;;;;;20.64;67.90;100893.88;6150406;23;45276;-90
2021/07/13 11:49:04;;;;;;;;;11.00;10.00;;;;;20.58;68.36;100887.22;6149868;23;45476;-90
2021/07/13 11:51:33;;;;;;;;;16.00;11.67;;;;;20.56;68.54;100878.59;6080330;23;45442;-90